.
WxDataArchive / Data Records for 2007-09-27
2007-09-26 September 2007 2007-09-28

Data Records for Thursday, 27 September 2007

Time	Temp	Chill	HIndex	Humid	Dewpt	 Wind 	HiWind	WindDir	Rain 	Barom 
-----	----	-----	------	-----	-----	------	------	-------	-----	----- 
00:00	62.6	62.6	62.6	94	60.8	0	1	315	0.00	29.933 
00:05	62.6	62.6	62.6	94	60.8	0	1	315	0.00	29.933 
00:10	62.6	62.6	62.6	94	60.8	0	1	315	0.00	29.929 
00:15	62.6	62.6	62.6	94	60.8	0	1	315	0.00	29.931 
00:20	62.6	62.6	62.6	94	60.8	0	1	315	0.00	29.932 
00:25	62.6	62.6	62.6	94	60.8	0	0	---	0.00	29.934 
00:30	62.7	62.7	62.7	94	60.9	0	0	---	0.00	29.931 
00:35	62.7	62.7	62.7	94	60.9	0	0	---	0.00	29.932 
00:40	62.7	62.7	62.7	94	60.9	0	0	---	0.00	29.928 
00:45	62.7	62.7	62.7	94	60.9	0	0	---	0.00	29.929 
00:50	62.6	62.6	62.6	94	60.8	0	0	---	0.00	29.932 
00:55	62.6	62.6	62.6	94	60.8	0	0	---	0.00	29.935 
01:00	62.6	62.6	62.6	94	60.8	0	0	---	0.00	29.932 
01:05	62.6	62.6	62.6	94	60.8	0	0	---	0.00	29.931 
01:10	62.4	62.4	62.4	94	60.6	0	0	---	0.00	29.934 
01:15	62.1	62.1	62.1	94	60.3	0	0	---	0.00	29.937 
01:20	62.0	62.0	62.0	94	60.2	0	0	---	0.00	29.937 
01:25	61.8	61.8	61.8	94	60.1	0	0	---	0.00	29.937 
01:30	61.6	61.6	61.6	94	59.9	0	0	---	0.00	29.935 
01:35	61.6	61.6	61.6	94	59.9	0	1	315	0.00	29.933 
01:40	61.6	61.6	61.6	95	60.2	0	1	315	0.00	29.928 
01:45	61.6	61.6	61.6	95	60.2	0	2	315	0.00	29.929 
01:50	61.5	61.5	61.5	95	60.1	0	1	315	0.00	29.931 
01:55	61.5	61.5	61.5	95	60.1	0	1	315	0.00	29.936 
02:00	61.3	61.3	61.3	95	59.9	0	1	315	0.00	29.938 
02:05	61.0	61.0	61.0	95	59.6	0	1	315	0.00	29.941 
02:10	60.9	60.9	60.9	95	59.5	0	1	315	0.00	29.941 
02:15	60.9	60.9	60.9	95	59.5	0	1	315	0.00	29.943 
02:20	60.9	60.9	60.9	94	59.2	0	1	315	0.00	29.943 
02:25	60.9	60.9	60.9	94	59.2	0	1	315	0.00	29.942 
02:30	60.9	60.9	60.9	94	59.2	0	1	315	0.00	29.942 
02:35	60.7	60.7	60.7	94	59.0	0	0	---	0.00	29.942 
02:40	60.4	60.4	60.4	93	58.4	0	0	---	0.00	29.941 
02:45	60.2	60.2	60.2	93	58.2	0	0	---	0.00	29.940 
02:50	60.1	60.1	60.1	93	58.1	0	0	---	0.00	29.939 
02:55	59.8	59.8	59.8	93	57.8	0	0	---	0.00	29.938 
03:00	59.5	59.5	59.5	93	57.5	0	0	---	0.00	29.939 
03:05	59.2	59.2	59.2	93	57.2	0	0	---	0.00	29.940 
03:10	58.9	58.9	58.9	93	56.9	0	0	---	0.00	29.941 
03:15	58.7	58.7	58.7	93	56.7	0	0	---	0.00	29.940 
03:20	58.4	58.4	58.4	93	56.4	0	0	---	0.00	29.938 
03:25	58.1	58.1	58.1	94	56.4	0	0	---	0.00	29.932 
03:30	58.0	58.0	58.0	94	56.3	0	0	---	0.00	29.933 
03:35	57.8	57.8	57.8	94	56.1	0	0	---	0.00	29.930 
03:40	57.6	57.6	57.6	94	55.9	0	0	---	0.00	29.930 
03:45	57.5	57.5	57.5	95	56.1	0	0	---	0.00	29.929 
03:50	57.3	57.3	57.3	95	55.9	0	0	---	0.00	29.931 
03:55	57.2	57.2	57.2	95	55.8	0	0	---	0.00	29.931 
04:00	56.9	56.9	56.9	95	55.5	0	0	---	0.00	29.930 
04:05	56.7	56.7	56.7	95	55.3	0	0	---	0.00	29.930 
04:10	56.6	56.6	56.6	95	55.2	0	0	---	0.00	29.930 
04:15	56.5	56.5	56.5	95	55.1	0	0	---	0.00	29.931 
04:20	56.3	56.3	56.3	95	54.9	0	0	---	0.00	29.932 
04:25	56.2	56.2	56.2	96	55.1	0	0	---	0.00	29.932 
04:30	55.9	55.9	55.9	95	54.5	0	0	---	0.00	29.933 
04:35	55.7	55.7	55.7	95	54.3	0	0	---	0.00	29.933 
04:40	55.4	55.4	55.4	95	54.0	0	0	---	0.00	29.937 
04:45	55.3	55.3	55.3	95	53.9	0	0	---	0.00	29.937 
04:50	55.1	55.1	55.1	96	54.0	0	0	---	0.00	29.940 
04:55	54.8	54.8	54.8	96	53.7	0	0	---	0.00	29.943 
05:00	54.7	54.7	54.7	95	53.3	0	0	---	0.00	29.944 
05:05	54.5	54.5	54.5	96	53.4	0	0	---	0.00	29.947 
05:10	54.4	54.4	54.4	96	53.3	0	0	---	0.00	29.949 
05:15	54.2	54.2	54.2	96	53.1	0	0	---	0.00	29.949 
05:20	54.2	54.2	54.2	96	53.1	0	0	---	0.00	29.948 
05:25	54.1	54.1	54.1	96	53.0	0	0	---	0.00	29.948 
05:30	53.9	53.9	53.9	96	52.8	0	0	---	0.00	29.948 
05:35	53.8	53.8	53.8	96	52.7	0	0	---	0.00	29.948 
05:40	53.6	53.6	53.6	96	52.5	0	0	---	0.00	29.948 
05:45	53.5	53.5	53.5	96	52.4	0	0	---	0.00	29.951 
05:50	53.5	53.5	53.5	96	52.4	0	0	---	0.00	29.950 
05:55	53.3	53.3	53.3	96	52.2	0	0	---	0.00	29.950 
06:00	53.2	53.2	53.2	96	52.1	0	0	---	0.00	29.951 
06:05	53.2	53.2	53.2	96	52.1	0	0	---	0.00	29.950 
06:10	53.1	53.1	53.1	96	52.0	0	0	---	0.00	29.950 
06:15	53.1	53.1	53.1	96	52.0	0	0	---	0.00	29.948 
06:20	53.1	53.1	53.1	96	52.0	0	0	---	0.00	29.948 
06:25	53.2	53.2	53.2	96	52.1	0	0	---	0.00	29.950 
06:30	53.2	53.2	53.2	96	52.1	0	0	---	0.00	29.948 
06:35	53.2	53.2	53.2	96	52.1	0	0	---	0.00	29.946 
06:40	53.2	53.2	53.2	96	52.1	0	0	---	0.00	29.944 
06:45	53.2	53.2	53.2	96	52.1	0	0	---	0.00	29.944 
06:50	53.1	53.1	53.1	96	52.0	0	0	---	0.00	29.945 
06:55	53.2	53.2	53.2	96	52.1	0	0	---	0.00	29.944 
07:00	53.2	53.2	53.2	96	52.1	0	0	---	0.00	29.939 
07:05	53.2	53.2	53.2	96	52.1	0	0	---	0.00	29.946 
07:10	53.2	53.2	53.2	96	52.1	0	0	---	0.00	29.947 
07:15	53.3	53.3	53.3	96	52.2	0	0	---	0.00	29.949 
07:20	53.6	53.6	53.6	97	52.8	0	0	---	0.00	29.950 
07:25	53.8	53.8	53.8	97	53.0	0	0	---	0.00	29.951 
07:30	53.9	53.9	53.9	97	53.1	0	0	---	0.00	29.952 
07:35	54.1	54.1	54.1	97	53.3	0	0	---	0.00	29.953 
07:40	54.2	54.2	54.2	97	53.4	0	0	---	0.00	29.952 
07:45	54.4	54.4	54.4	97	53.6	0	0	---	0.00	29.954 
07:50	54.5	54.5	54.5	97	53.7	0	0	---	0.00	29.953 
07:55	54.8	54.8	54.8	97	54.0	0	0	---	0.00	29.953 
08:00	55.1	55.1	55.1	97	54.3	0	0	---	0.00	29.952 
08:05	55.1	55.1	55.1	97	54.3	0	0	---	0.00	29.950 
08:10	55.1	55.1	55.1	97	54.3	0	0	---	0.00	29.949 
08:15	55.3	55.3	55.3	97	54.5	0	0	---	0.00	29.949 
08:20	55.6	55.6	55.6	97	54.8	0	0	---	0.00	29.954 
08:25	55.7	55.7	55.7	97	54.9	0	0	---	0.00	29.960 
08:30	55.7	55.7	55.7	97	54.9	0	0	---	0.00	29.963 
08:35	55.9	55.9	55.9	97	55.1	0	0	---	0.00	29.963 
08:40	56.0	56.0	56.0	96	54.9	0	0	---	0.00	29.965 
08:45	56.3	56.3	56.3	96	55.2	0	0	---	0.00	29.967 
08:50	56.5	56.5	56.5	96	55.4	0	1	315	0.00	29.966 
08:55	56.6	56.6	56.6	96	55.5	0	0	---	0.00	29.968 
09:00	56.9	56.9	56.9	95	55.5	0	1	315	0.00	29.964 
09:05	57.2	57.2	57.2	93	55.2	0	0	---	0.00	29.962 
09:10	57.3	57.3	57.3	92	55.0	0	1	315	0.00	29.962 
09:15	57.5	57.5	57.5	89	54.3	0	1	315	0.00	29.960 
09:20	58.0	58.0	58.0	89	54.8	0	0	---	0.00	29.956 
09:25	58.1	58.1	58.1	87	54.2	0	1	315	0.00	29.958 
09:30	58.3	58.3	58.3	86	54.1	0	0	---	0.00	29.957 
09:35	58.6	58.6	58.6	83	53.4	0	0	---	0.00	29.956 
09:40	58.9	58.9	58.9	82	53.4	0	0	---	0.00	29.950 
09:45	59.2	59.2	59.2	82	53.7	0	1	315	0.00	29.948 
09:50	59.5	59.5	59.5	81	53.7	0	1	315	0.00	29.945 
09:55	59.6	59.6	59.6	81	53.8	0	0	---	0.00	29.945 
10:00	59.9	59.9	59.9	81	54.1	0	0	---	0.00	29.946 
10:05	60.1	60.1	60.1	81	54.2	0	1	315	0.00	29.947 
10:10	60.4	60.4	60.4	81	54.5	0	0	---	0.00	29.949 
10:15	60.7	60.7	60.7	78	53.8	0	0	---	0.00	29.950 
10:20	60.9	60.9	60.9	77	53.6	0	0	---	0.00	29.948 
10:25	61.3	61.3	61.3	76	53.7	0	0	---	0.00	29.946 
10:30	61.6	61.6	61.6	77	54.3	0	1	315	0.00	29.945 
10:35	62.0	62.0	62.0	75	54.0	0	1	315	0.00	29.944 
10:40	62.4	62.4	62.4	75	54.4	0	2	315	0.00	29.943 
10:45	62.7	62.7	62.7	74	54.3	0	2	315	0.00	29.942 
10:50	63.1	63.1	63.1	73	54.3	1	3	0	0.00	29.942 
10:55	63.5	63.5	63.5	70	53.5	1	2	22	0.00	29.943 
11:00	63.9	63.9	63.9	68	53.1	1	3	248	0.00	29.943 
11:05	64.0	64.0	64.0	67	52.8	0	1	248	0.00	29.942 
11:10	64.2	64.2	64.2	71	54.6	0	1	248	0.00	29.944 
11:15	64.8	64.8	64.8	68	54.0	0	1	248	0.00	29.941 
11:20	65.5	65.5	65.5	66	53.8	0	2	248	0.00	29.940 
11:25	66.1	66.1	66.1	63	53.1	0	2	248	0.00	29.939 
11:30	66.8	66.8	66.8	65	54.6	0	1	225	0.00	29.936 
11:35	67.1	67.1	67.1	62	53.6	0	2	338	0.00	29.936 
11:40	67.1	67.1	67.1	65	54.9	0	3	22	0.00	29.936 
11:45	67.6	67.6	67.6	65	55.4	0	1	22	0.00	29.935 
11:50	68.3	68.3	68.3	62	54.8	0	2	22	0.00	29.936 
11:55	68.9	68.9	68.9	63	55.8	0	1	22	0.00	29.934 
12:00	69.4	69.4	69.4	61	55.4	0	2	248	0.00	29.933 
12:05	69.4	69.4	69.4	61	55.4	0	2	248	0.00	29.929 
12:10	69.6	69.6	69.6	61	55.5	0	2	248	0.00	29.927 
12:15	70.1	70.1	70.1	61	56.0	0	2	248	0.00	29.926 
12:20	70.1	70.1	70.1	58	54.6	0	2	248	0.00	29.922 
12:25	70.3	70.3	70.3	57	54.3	1	2	270	0.00	29.920 
12:30	70.4	70.4	70.4	55	53.4	1	4	248	0.00	29.921 
12:35	70.4	70.4	70.4	56	53.9	0	2	248	0.00	29.918 
12:40	69.9	69.9	69.9	55	53.0	1	3	315	0.00	29.917 
12:45	69.9	69.9	69.9	57	54.0	1	2	338	0.00	29.916 
12:50	69.9	69.9	69.9	55	53.0	1	2	315	0.00	29.912 
12:55	70.1	70.1	70.1	56	53.7	1	2	315	0.00	29.911 
13:00	70.6	70.6	70.6	55	53.6	1	2	270	0.00	29.910 
13:05	71.1	71.1	71.1	55	54.1	1	3	270	0.00	29.910 
13:10	71.3	71.3	71.3	54	53.8	1	2	270	0.00	29.908 
13:15	71.6	71.6	71.6	54	54.1	0	2	270	0.00	29.906 
13:20	71.6	71.6	71.6	53	53.5	1	3	270	0.00	29.905 
13:25	71.6	71.6	71.6	56	55.1	1	2	248	0.00	29.904 
13:30	72.0	72.0	72.0	56	55.4	1	4	248	0.00	29.901 
13:35	71.8	71.8	71.8	53	53.7	1	3	315	0.00	29.900 
13:40	71.8	71.8	71.8	53	53.7	1	2	315	0.00	29.898 
13:45	72.1	72.1	72.1	55	55.0	1	2	315	0.00	29.895 
13:50	72.7	72.7	72.7	53	54.6	1	2	315	0.00	29.890 
13:55	73.0	73.0	73.0	52	54.3	1	3	270	0.00	29.890 
14:00	73.2	73.2	73.2	52	54.5	1	2	270	0.00	29.888 
14:05	73.2	73.2	73.2	51	54.0	1	3	315	0.00	29.886 
14:10	73.0	73.0	73.0	50	53.2	1	2	338	0.00	29.885 
14:15	72.8	72.8	72.8	50	53.1	1	2	315	0.00	29.882 
14:20	72.7	72.7	72.7	51	53.5	1	2	315	0.00	29.879 
14:25	73.0	73.0	73.0	50	53.2	1	3	270	0.00	29.878 
14:30	73.5	73.5	73.5	49	53.2	1	2	248	0.00	29.879 
14:35	73.5	73.5	73.5	48	52.6	1	3	270	0.00	29.877 
14:40	73.7	73.7	73.7	47	52.2	1	4	270	0.00	29.875 
14:45	73.7	73.7	73.7	46	51.6	1	3	270	0.00	29.875 
14:50	73.9	73.9	73.9	47	52.4	0	2	315	0.00	29.874 
14:55	74.0	74.0	74.0	47	52.5	1	3	270	0.00	29.873 
15:00	73.9	73.9	73.9	46	51.8	1	3	270	0.00	29.872 
15:05	73.7	73.7	73.7	49	53.3	1	3	292	0.00	29.874 
15:10	73.9	73.9	73.9	47	52.4	1	2	292	0.00	29.873 
15:15	73.9	73.9	73.9	46	51.8	0	2	292	0.00	29.871 
15:20	73.7	73.7	73.7	46	51.6	0	1	292	0.00	29.871 
15:25	73.9	73.9	73.9	44	50.6	1	2	292	0.00	29.872 
15:30	73.5	73.5	73.5	45	50.8	0	2	292	0.00	29.873 
15:35	73.2	73.2	73.2	44	50.0	0	2	292	0.00	29.871 
15:40	73.0	73.0	73.0	46	51.0	0	2	315	0.00	29.871 
15:45	73.0	73.0	73.0	46	51.0	0	1	315	0.00	29.870 
15:50	72.8	72.8	72.8	47	51.4	1	3	338	0.00	29.869 
15:55	72.5	72.5	72.5	45	49.9	0	2	338	0.00	29.866 
16:00	72.5	72.5	72.5	45	49.9	0	1	338	0.00	29.866 
16:05	72.7	72.7	72.7	46	50.7	0	2	338	0.00	29.867 
16:10	73.0	73.0	73.0	44	49.8	0	2	315	0.00	29.865 
16:15	72.8	72.8	72.8	44	49.6	1	3	315	0.00	29.865 
16:20	72.7	72.7	72.7	44	49.5	1	2	315	0.00	29.865 
16:25	72.8	72.8	72.8	46	50.8	0	2	338	0.00	29.866 
16:30	72.8	72.8	72.8	46	50.8	0	2	338	0.00	29.865 
16:35	72.8	72.8	72.8	46	50.8	0	1	315	0.00	29.864 
16:40	72.7	72.7	72.7	48	51.9	0	1	315	0.00	29.864 
16:45	72.7	72.7	72.7	46	50.7	0	1	315	0.00	29.864 
16:50	72.7	72.7	72.7	47	51.3	0	2	315	0.00	29.863 
16:55	72.3	72.3	72.3	47	50.9	0	2	315	0.00	29.863 
17:00	72.3	72.3	72.3	48	51.5	0	1	315	0.00	29.865 
17:05	72.1	72.1	72.1	49	51.9	0	1	315	0.00	29.866 
17:10	72.0	72.0	72.0	47	50.7	0	2	315	0.00	29.867 
17:15	71.5	71.5	71.5	47	50.2	0	1	292	0.00	29.866 
17:20	71.1	71.1	71.1	47	49.8	0	1	292	0.00	29.866 
17:25	70.9	70.9	70.9	49	50.8	0	1	292	0.00	29.866 
17:30	70.6	70.6	70.6	49	50.5	0	0	---	0.00	29.866 
17:35	70.4	70.4	70.4	50	50.9	0	0	---	0.00	29.867 
17:40	70.3	70.3	70.3	51	51.3	0	0	---	0.00	29.869 
17:45	69.9	69.9	69.9	52	51.5	0	0	---	0.00	29.872 
17:50	69.8	69.8	69.8	53	51.9	0	0	---	0.00	29.872 
17:55	69.4	69.4	69.4	54	52.0	0	1	292	0.00	29.876 
18:00	69.1	69.1	69.1	54	51.7	0	1	292	0.00	29.878 
18:05	68.9	68.9	68.9	54	51.6	0	1	292	0.00	29.880 
18:10	68.8	68.8	68.8	54	51.5	0	0	---	0.00	29.880 
18:15	68.6	68.6	68.6	54	51.3	0	0	---	0.00	29.879 
18:20	68.6	68.6	68.6	53	50.8	0	0	---	0.00	29.881 
18:25	68.4	68.4	68.4	52	50.1	0	0	---	0.00	29.883 
18:30	68.3	68.3	68.3	52	50.0	0	0	---	0.00	29.883 
18:35	68.1	68.1	68.1	51	49.3	0	0	---	0.00	29.882 
18:40	67.9	67.9	67.9	52	49.6	0	0	---	0.00	29.883 
18:45	67.6	67.6	67.6	53	49.9	0	0	---	0.00	29.882 
18:50	67.4	67.4	67.4	56	51.1	0	0	---	0.00	29.882 
18:55	67.1	67.1	67.1	56	50.9	0	0	---	0.00	29.882 
19:00	66.6	66.6	66.6	57	50.9	0	0	---	0.00	29.880 
19:05	66.3	66.3	66.3	58	51.1	0	0	---	0.00	29.880 
19:10	65.8	65.8	65.8	58	50.6	0	0	---	0.00	29.881 
19:15	65.2	65.2	65.2	60	51.0	0	0	---	0.00	29.881 
19:20	64.3	64.3	64.3	61	50.6	0	0	---	0.00	29.882 
19:25	63.5	63.5	63.5	62	50.2	0	0	---	0.00	29.883 
19:30	62.9	62.9	62.9	64	50.5	0	0	---	0.00	29.883 
19:35	62.3	62.3	62.3	66	50.8	0	0	---	0.00	29.885 
19:40	61.6	61.6	61.6	68	50.9	0	0	---	0.00	29.886 
19:45	61.2	61.2	61.2	69	50.9	0	0	---	0.00	29.887 
19:50	60.7	60.7	60.7	70	50.9	0	0	---	0.00	29.888 
19:55	60.4	60.4	60.4	72	51.3	0	0	---	0.00	29.888 
20:00	60.1	60.1	60.1	73	51.4	0	0	---	0.00	29.890 
20:05	59.8	59.8	59.8	73	51.1	0	0	---	0.00	29.891 
20:10	59.5	59.5	59.5	74	51.2	0	0	---	0.00	29.891 
20:15	59.2	59.2	59.2	75	51.3	0	0	---	0.00	29.893 
20:20	58.9	58.9	58.9	76	51.3	0	0	---	0.00	29.897 
20:25	58.6	58.6	58.6	77	51.4	0	0	---	0.00	29.897 
20:30	58.3	58.3	58.3	77	51.1	0	0	---	0.00	29.897 
20:35	58.0	58.0	58.0	78	51.2	0	0	---	0.00	29.900 
20:40	57.6	57.6	57.6	78	50.8	0	0	---	0.00	29.902 
20:45	57.5	57.5	57.5	79	51.0	0	0	---	0.00	29.903 
20:50	57.2	57.2	57.2	80	51.1	0	0	---	0.00	29.904 
20:55	56.9	56.9	56.9	81	51.1	0	0	---	0.00	29.905 
21:00	56.7	56.7	56.7	81	50.9	0	0	---	0.00	29.907 
21:05	56.6	56.6	56.6	82	51.2	0	0	---	0.00	29.905 
21:10	56.3	56.3	56.3	83	51.2	0	0	---	0.00	29.905 
21:15	56.2	56.2	56.2	83	51.1	0	0	---	0.00	29.907 
21:20	56.0	56.0	56.0	84	51.2	0	0	---	0.00	29.908 
21:25	55.9	55.9	55.9	84	51.1	0	0	---	0.00	29.908 
21:30	55.7	55.7	55.7	85	51.3	0	0	---	0.00	29.907 
21:35	55.6	55.6	55.6	86	51.5	0	0	---	0.00	29.907 
21:40	55.4	55.4	55.4	87	51.6	0	0	---	0.00	29.916 
21:45	56.3	56.3	56.3	82	50.9	0	2	338	0.00	29.941 
21:50	58.1	58.1	58.1	74	49.9	1	6	338	0.00	29.936 
21:55	59.0	59.0	59.0	71	49.6	0	4	292	0.00	29.935 
22:00	59.2	59.2	59.2	69	49.0	0	2	315	0.00	29.935 
22:05	59.2	59.2	59.2	68	48.6	0	2	315	0.00	29.934 
22:10	59.2	59.2	59.2	67	48.2	0	4	68	0.00	29.931 
22:15	59.2	59.2	59.2	66	47.8	0	1	68	0.00	29.938 
22:20	59.2	59.2	59.2	67	48.2	0	1	68	0.00	29.932 
22:25	59.0	59.0	59.0	67	48.1	0	2	68	0.00	29.930 
22:30	59.0	59.0	59.0	67	48.1	0	1	68	0.00	29.928 
22:35	58.9	58.9	58.9	67	48.0	0	1	68	0.00	29.929 
22:40	58.9	58.9	58.9	69	48.7	0	2	68	0.00	29.928 
22:45	58.7	58.7	58.7	69	48.6	0	1	68	0.00	29.928 
22:50	58.6	58.6	58.6	69	48.5	0	0	---	0.00	29.925 
22:55	58.1	58.1	58.1	70	48.4	0	0	---	0.00	29.926 
23:00	57.6	57.6	57.6	72	48.6	0	0	---	0.00	29.928 
23:05	57.2	57.2	57.2	74	49.0	0	0	---	0.00	29.927 
23:10	56.9	56.9	56.9	75	49.1	0	0	---	0.00	29.929 
23:15	56.5	56.5	56.5	77	49.4	0	0	---	0.00	29.927 
23:20	56.2	56.2	56.2	78	49.4	0	0	---	0.00	29.929 
23:25	55.7	55.7	55.7	79	49.3	0	0	---	0.00	29.928 
23:30	55.3	55.3	55.3	81	49.6	0	0	---	0.00	29.927 
23:35	55.0	55.0	55.0	82	49.6	0	0	---	0.00	29.927 
23:40	54.5	54.5	54.5	84	49.8	0	0	---	0.00	29.926 
23:45	54.1	54.1	54.1	84	49.4	0	0	---	0.00	29.926 
23:50	53.6	53.6	53.6	85	49.2	0	0	---	0.00	29.927 
23:55	53.2	53.2	53.2	86	49.1	0	0	---	0.00	29.927 

CoCoRaHS
IN-AL-39
A2 Web Hosting
Creative Commons License
GoDaddy
Look for:

loaded 2017-12-12 14:55:53 • last modified 2010-11-18 10:43:29
Privacy PolicyDisclaimer
• wx.awcolley.com is powered by PmWiki v.2002016 •
• all content (unless otherwise noted) © 2017 A W Colley